Time;durP1;ratioP1;P1;durP2;ratioP2;P2;SDS_P1;SDS_P2;PMS_P1;PMS_P2;Temp;Humidity;BMP_temperature;BMP_pressure;BME280_temperature;BME280_humidity;BME280_pressure;Samples;Min_cycle;Max_cycle;Signal;HPM_P1;HPM_P2
2021/07/08 00:01:26;;;;;;;;;;;25.20;61.90;;;;;;5037845;28;88836;-48
2021/07/08 00:03:51;;;;;;;;;;;25.10;61.80;;;;;;5036703;28;89486;-49
2021/07/08 00:06:17;;;;;;;;;;;25.10;61.80;;;;;;5037852;28;87140;-50
2021/07/08 00:08:42;;;;;;;;;;;25.10;61.70;;;;;;5039138;28;87483;-49
2021/07/08 00:11:08;;;;;;;;;;;25.10;61.90;;;;;;5039295;28;88712;-49
2021/07/08 00:13:34;;;;;;;;;;;25.10;61.80;;;;;;5041418;28;87400;-48
2021/07/08 00:15:59;;;;;;;;;;;25.10;61.80;;;;;;5038867;28;89046;-48
2021/07/08 00:18:25;;;;;;;;;;;25.10;61.80;;;;;;5036268;28;89275;-48
2021/07/08 00:20:51;;;;;;;;;;;25.10;61.90;;;;;;5042131;28;88372;-49
2021/07/08 00:23:19;;;;;;;;;;;25.00;61.90;;;;;;5036649;28;88589;-49
2021/07/08 00:25:44;;;;;;;;;;;25.00;61.80;;;;;;5039727;28;88403;-49
2021/07/08 00:28:12;;;;;;;;;;;25.00;61.80;;;;;;5041690;28;88852;-48
2021/07/08 00:30:39;;;;;;;;;;;25.00;61.80;;;;;;5038810;28;89093;-49
2021/07/08 00:33:04;;;;;;;;;;;24.90;61.80;;;;;;5038476;27;87172;-49
2021/07/08 00:35:30;;;;;;;;;;;24.90;61.80;;;;;;5038991;28;89042;-50
2021/07/08 00:37:55;;;;;;;;;;;24.90;61.80;;;;;;5039629;28;88123;-48
2021/07/08 00:40:21;;;;;;;;;;;24.90;61.90;;;;;;5036755;28;87301;-48
2021/07/08 00:42:47;;;;;;;;;;;24.90;61.80;;;;;;5039346;28;88625;-48
2021/07/08 00:45:14;;;;;;;;;;;24.90;62.00;;;;;;5038059;28;87156;-49
2021/07/08 00:47:39;;;;;;;;;;;24.90;61.90;;;;;;5037236;28;89189;-50
2021/07/08 00:50:06;;;;;;;;;;;24.90;61.90;;;;;;5038056;28;87872;-49
2021/07/08 00:52:31;;;;;;;;;;;24.80;61.90;;;;;;5038445;28;86430;-48
2021/07/08 00:54:57;;;;;;;;;;;24.80;62.00;;;;;;5039333;28;87412;-49
2021/07/08 00:57:23;;;;;;;;;;;24.80;61.80;;;;;;5040349;28;87667;-52
2021/07/08 00:59:52;;;;;;;;;;;24.80;61.80;;;;;;5038638;28;90007;-50
2021/07/08 01:02:18;;;;;;;;;;;24.80;61.80;;;;;;5039821;28;89780;-49
2021/07/08 01:04:44;;;;;;;;;;;24.80;61.90;;;;;;5038474;28;87246;-49
2021/07/08 01:07:10;;;;;;;;;;;24.70;62.50;;;;;;5038892;28;87560;-49
2021/07/08 01:09:36;;;;;;;;;;;24.70;61.70;;;;;;5037377;28;89372;-48
2021/07/08 01:12:01;;;;;;;;;;;24.70;61.80;;;;;;5038975;28;87113;-50
2021/07/08 01:14:27;;;;;;;;;;;24.70;61.90;;;;;;5040233;28;87140;-50
2021/07/08 01:16:52;;;;;;;;;;;24.70;61.80;;;;;;5038411;28;87244;-48
2021/07/08 01:19:18;;;;;;;;;;;24.60;61.80;;;;;;5035919;28;87201;-49
2021/07/08 01:21:43;;;;;;;;;;;24.70;61.90;;;;;;5037229;28;87117;-49
2021/07/08 01:24:09;;;;;;;;;;;24.60;61.90;;;;;;5040278;28;89077;-49
2021/07/08 01:26:37;;;;;;;;;;;24.60;61.80;;;;;;5039188;28;89623;-50
2021/07/08 01:29:03;;;;;;;;;;;24.60;61.80;;;;;;5036261;28;88669;-49
2021/07/08 01:31:29;;;;;;;;;;;24.60;61.90;;;;;;5037630;28;87236;-49
2021/07/08 01:33:54;;;;;;;;;;;24.60;61.80;;;;;;5038814;28;87676;-49
2021/07/08 01:36:20;;;;;;;;;;;24.60;62.50;;;;;;5039418;28;89184;-50
2021/07/08 01:38:46;;;;;;;;;;;24.50;61.90;;;;;;5038803;28;88679;-49
2021/07/08 01:41:11;;;;;;;;;;;24.50;62.00;;;;;;5036470;28;88137;-48
2021/07/08 01:43:38;;;;;;;;;;;24.50;61.90;;;;;;5035910;28;88317;-50
2021/07/08 01:46:15;;;;;;;;;;;24.50;62.00;;;;;;5041077;28;87220;-48
2021/07/08 01:48:42;;;;;;;;;;;24.50;61.80;;;;;;5038737;28;89750;-49
2021/07/08 01:51:18;;;;;;;;;;;24.50;62.00;;;;;;5040200;28;88561;-48
2021/07/08 01:53:43;;;;;;;;;;;24.50;61.80;;;;;;5040867;28;89086;-51
2021/07/08 01:56:09;;;;;;;;;;;24.40;62.00;;;;;;5040928;28;88699;-49
2021/07/08 01:58:34;;;;;;;;;;;24.40;62.00;;;;;;5038860;28;87139;-49
2021/07/08 02:01:00;;;;;;;;;;;24.40;62.00;;;;;;5039658;28;88352;-49
2021/07/08 02:03:25;;;;;;;;;;;24.40;61.70;;;;;;5039633;28;87167;-49
2021/07/08 02:05:51;;;;;;;;;;;24.30;61.90;;;;;;5041768;28;86397;-49
2021/07/08 02:08:16;;;;;;;;;;;24.30;61.90;;;;;;5045151;28;87149;-49
2021/07/08 02:10:42;;;;;;;;;;;24.30;62.00;;;;;;5042275;28;87169;-48
2021/07/08 02:13:08;;;;;;;;;;;24.30;62.00;;;;;;5040864;28;89416;-50
2021/07/08 02:15:34;;;;;;;;;;;24.30;62.00;;;;;;5038128;28;89887;-48
2021/07/08 02:17:59;;;;;;;;;;;24.30;61.90;;;;;;5039436;28;87169;-49
2021/07/08 02:20:25;;;;;;;;;;;24.30;62.10;;;;;;5040672;28;87163;-49
2021/07/08 02:22:50;;;;;;;;;;;24.30;61.90;;;;;;5041428;28;88122;-48
2021/07/08 02:25:16;;;;;;;;;;;24.20;61.90;;;;;;5043088;28;87090;-50
2021/07/08 02:27:42;;;;;;;;;;;24.20;62.00;;;;;;5040172;28;88801;-48
2021/07/08 02:30:10;;;;;;;;;;;24.20;62.00;;;;;;5045893;28;86855;-50
2021/07/08 02:32:36;;;;;;;;;;;24.20;62.10;;;;;;5040190;28;88626;-49
2021/07/08 02:35:03;;;;;;;;;;;24.20;62.00;;;;;;5039249;28;87839;-48
2021/07/08 02:37:29;;;;;;;;;;;24.20;62.00;;;;;;5037281;28;88074;-49
2021/07/08 02:39:54;;;;;;;;;;;24.20;62.00;;;;;;5038964;28;87916;-48
2021/07/08 02:42:20;;;;;;;;;;;24.10;62.00;;;;;;5039693;28;89585;-49
2021/07/08 02:44:45;;;;;;;;;;;24.10;62.00;;;;;;5041314;28;87138;-49
2021/07/08 02:47:11;;;;;;;;;;;24.10;62.00;;;;;;5042631;28;88295;-50
2021/07/08 02:49:36;;;;;;;;;;;24.10;62.10;;;;;;5040062;28;88693;-49
2021/07/08 02:52:02;;;;;;;;;;;24.10;62.00;;;;;;5042252;28;88389;-48
2021/07/08 02:54:28;;;;;;;;;;;24.10;62.00;;;;;;5037908;28;88788;-48
2021/07/08 02:56:53;;;;;;;;;;;24.00;62.00;;;;;;5037590;28;87132;-49
2021/07/08 02:59:19;;;;;;;;;;;24.00;62.10;;;;;;5037767;28;87234;-49
2021/07/08 03:01:44;;;;;;;;;;;24.00;62.00;;;;;;5038000;28;89858;-49
2021/07/08 03:04:10;;;;;;;;;;;24.00;62.00;;;;;;5038532;28;87763;-48
2021/07/08 03:06:35;;;;;;;;;;;23.90;62.10;;;;;;5038399;28;88651;-48
2021/07/08 03:09:01;;;;;;;;;;;24.00;62.20;;;;;;5039333;28;87756;-49
2021/07/08 03:11:27;;;;;;;;;;;23.90;62.00;;;;;;5042846;28;87109;-49
2021/07/08 03:13:52;;;;;;;;;;;23.90;62.10;;;;;;5040749;28;88416;-50
2021/07/08 03:16:18;;;;;;;;;;;23.90;62.10;;;;;;5042118;28;87958;-49
2021/07/08 03:18:43;;;;;;;;;;;23.90;62.10;;;;;;5039187;28;89442;-48
2021/07/08 03:21:09;;;;;;;;;;;23.90;62.10;;;;;;5037585;28;88272;-49
2021/07/08 03:23:35;;;;;;;;;;;23.80;62.10;;;;;;5039168;28;87269;-49
2021/07/08 03:26:01;;;;;;;;;;;23.80;62.10;;;;;;5039333;28;88808;-49
2021/07/08 03:28:26;;;;;;;;;;;23.80;62.10;;;;;;5039763;28;89421;-50
2021/07/08 03:30:52;;;;;;;;;;;23.80;62.10;;;;;;5041613;28;87184;-50
2021/07/08 03:33:17;;;;;;;;;;;23.80;62.20;;;;;;5042753;28;88839;-49
2021/07/08 03:35:43;;;;;;;;;;;23.80;62.20;;;;;;5037179;28;87257;-48
2021/07/08 03:38:09;;;;;;;;;;;23.80;62.20;;;;;;5038403;28;87567;-48
2021/07/08 03:40:34;;;;;;;;;;;23.80;62.30;;;;;;5039312;28;87967;-50
2021/07/08 03:43:01;;;;;;;;;;;23.70;62.20;;;;;;5040979;28;86495;-49
2021/07/08 03:45:26;;;;;;;;;;;23.70;62.20;;;;;;5039588;28;87184;-50
2021/07/08 03:47:52;;;;;;;;;;;23.70;62.20;;;;;;5040152;28;88678;-48
2021/07/08 03:50:17;;;;;;;;;;;23.70;62.20;;;;;;5040963;28;88106;-49
2021/07/08 03:52:44;;;;;;;;;;;23.70;62.00;;;;;;5038675;28;88768;-48
2021/07/08 03:55:14;;;;;;;;;;;23.70;62.30;;;;;;5043457;28;89476;-50
2021/07/08 03:57:55;;;;;;;;;;;23.70;62.30;;;;;;5037873;28;87494;-49
2021/07/08 04:00:34;;;;;;;;;;;23.60;62.10;;;;;;5037844;28;89513;-49
2021/07/08 04:03:01;;;;;;;;;;;23.60;62.20;;;;;;5040847;28;87117;-49
2021/07/08 04:05:27;;;;;;;;;;;23.60;62.30;;;;;;5037708;28;87538;-49
2021/07/08 04:07:53;;;;;;;;;;;23.60;62.30;;;;;;5038491;27;87488;-49
2021/07/08 04:10:18;;;;;;;;;;;23.60;62.30;;;;;;5039117;28;87242;-49
2021/07/08 04:12:44;;;;;;;;;;;23.60;62.40;;;;;;5040689;28;87915;-50
2021/07/08 04:15:10;;;;;;;;;;;23.60;62.30;;;;;;5040032;28;89627;-49
2021/07/08 04:17:36;;;;;;;;;;;23.60;62.20;;;;;;5040809;28;88471;-48
2021/07/08 04:20:03;;;;;;;;;;;23.50;62.30;;;;;;5036331;28;89669;-49
2021/07/08 04:22:30;;;;;;;;;;;23.50;62.40;;;;;;5039714;28;88740;-49
2021/07/08 04:24:55;;;;;;;;;;;23.50;62.40;;;;;;5038800;28;87757;-48
2021/07/08 04:27:21;;;;;;;;;;;23.50;62.40;;;;;;5036101;28;89327;-50
2021/07/08 04:29:46;;;;;;;;;;;23.50;62.40;;;;;;5037364;28;87484;-49
2021/07/08 04:32:12;;;;;;;;;;;23.50;62.30;;;;;;5039453;28;87543;-49
2021/07/08 04:34:39;;;;;;;;;;;23.50;62.50;;;;;;5039596;28;87646;-49
2021/07/08 04:37:05;;;;;;;;;;;23.40;62.40;;;;;;5038603;28;87140;-49
2021/07/08 04:39:30;;;;;;;;;;;23.40;62.50;;;;;;5041804;28;88107;-49
2021/07/08 04:41:56;;;;;;;;;;;23.40;62.40;;;;;;5040404;28;88467;-49
2021/07/08 04:44:22;;;;;;;;;;;23.40;62.60;;;;;;5037874;28;89351;-49
2021/07/08 04:46:47;;;;;;;;;;;23.40;62.60;;;;;;5035869;28;88456;-48
2021/07/08 04:49:13;;;;;;;;;;;23.40;62.50;;;;;;5037555;28;87163;-49
2021/07/08 04:51:38;;;;;;;;;;;23.40;62.50;;;;;;5038648;28;88024;-49
2021/07/08 04:54:05;;;;;;;;;;;23.40;62.60;;;;;;5039175;28;88161;-48
2021/07/08 04:56:30;;;;;;;;;;;23.30;62.60;;;;;;5040627;28;86428;-48
2021/07/08 04:58:56;;;;;;;;;;;23.30;62.60;;;;;;5040035;28;88800;-49
2021/07/08 05:01:21;;;;;;;;;;;23.40;62.60;;;;;;5041992;28;89391;-50
2021/07/08 05:03:47;;;;;;;;;;;23.30;62.60;;;;;;5035483;28;89053;-49
2021/07/08 05:06:12;;;;;;;;;;;23.30;62.60;;;;;;5036544;28;88258;-48
2021/07/08 05:08:40;;;;;;;;;;;23.30;62.70;;;;;;5037241;28;87150;-49
2021/07/08 05:11:06;;;;;;;;;;;23.30;62.70;;;;;;5038859;28;88691;-48
2021/07/08 05:13:32;;;;;;;;;;;23.30;62.80;;;;;;5036177;28;88257;-50
2021/07/08 05:15:57;;;;;;;;;;;23.30;62.80;;;;;;5036545;28;87207;-48
2021/07/08 05:18:23;;;;;;;;;;;23.30;62.90;;;;;;5037858;28;87186;-49
2021/07/08 05:20:49;;;;;;;;;;;23.30;62.80;;;;;;5044291;27;87274;-50
2021/07/08 05:23:19;;;;;;;;;;;23.30;63.00;;;;;;5043053;28;87116;-50
2021/07/08 05:25:45;;;;;;;;;;;23.30;63.00;;;;;;5041391;28;88865;-49
2021/07/08 05:28:12;;;;;;;;;;;23.30;63.00;;;;;;5040729;28;89709;-48
2021/07/08 05:30:38;;;;;;;;;;;23.30;63.10;;;;;;5041556;28;88492;-49
2021/07/08 05:33:04;;;;;;;;;;;23.30;63.00;;;;;;5040803;28;88805;-49
2021/07/08 05:35:29;;;;;;;;;;;23.30;63.10;;;;;;5039240;28;87198;-49
2021/07/08 05:37:55;;;;;;;;;;;23.30;63.20;;;;;;5040398;28;88668;-48
2021/07/08 05:40:20;;;;;;;;;;;23.30;63.30;;;;;;5041117;28;89534;-49
2021/07/08 05:42:46;;;;;;;;;;;23.30;63.30;;;;;;5045667;28;87117;-50
2021/07/08 05:45:13;;;;;;;;;;;23.30;63.40;;;;;;5043473;28;88019;-49
2021/07/08 05:47:38;;;;;;;;;;;23.30;63.40;;;;;;5043236;28;87143;-51
2021/07/08 05:50:04;;;;;;;;;;;23.30;63.50;;;;;;5041394;28;88673;-48
2021/07/08 05:52:30;;;;;;;;;;;23.30;63.50;;;;;;5038228;28;89932;-49
2021/07/08 05:54:55;;;;;;;;;;;23.30;63.50;;;;;;5072204;27;87192;-50
2021/07/08 05:57:21;;;;;;;;;;;23.30;63.50;;;;;;5040577;28;87783;-48
2021/07/08 05:59:46;;;;;;;;;;;23.30;63.60;;;;;;5041621;28;88204;-49
2021/07/08 06:02:12;;;;;;;;;;;23.30;63.60;;;;;;5042203;28;87201;-49
2021/07/08 06:04:38;;;;;;;;;;;23.30;63.60;;;;;;5044208;28;87748;-49
2021/07/08 06:07:04;;;;;;;;;;;23.30;63.70;;;;;;5042399;28;87106;-49
2021/07/08 06:09:29;;;;;;;;;;;23.40;63.70;;;;;;5043766;28;87161;-49
2021/07/08 06:11:55;;;;;;;;;;;23.30;63.80;;;;;;5040109;28;88698;-48
2021/07/08 06:14:20;;;;;;;;;;;23.30;63.80;;;;;;5038742;28;87187;-48
2021/07/08 06:16:46;;;;;;;;;;;23.40;63.90;;;;;;5039300;28;88070;-49
2021/07/08 06:19:11;;;;;;;;;;;23.40;64.40;;;;;;5040786;28;87617;-48
2021/07/08 06:21:37;;;;;;;;;;;23.40;63.80;;;;;;5042411;28;87136;-49
2021/07/08 06:24:02;;;;;;;;;;;23.40;64.60;;;;;;5041885;28;87898;-49
2021/07/08 06:26:28;;;;;;;;;;;23.30;63.90;;;;;;5041675;28;90044;-50
2021/07/08 06:28:53;;;;;;;;;;;23.40;64.00;;;;;;5038919;28;87734;-49
2021/07/08 06:31:19;;;;;;;;;;;23.40;64.10;;;;;;5038953;27;87193;-49
2021/07/08 06:33:45;;;;;;;;;;;23.40;64.10;;;;;;5041572;28;86445;-49
2021/07/08 06:36:10;;;;;;;;;;;23.40;64.00;;;;;;5042670;28;87186;-50
2021/07/08 06:38:36;;;;;;;;;;;23.40;64.20;;;;;;5040881;28;88854;-49
2021/07/08 06:41:01;;;;;;;;;;;23.40;64.10;;;;;;5037311;28;88077;-48
2021/07/08 06:43:27;;;;;;;;;;;23.40;64.10;;;;;;5039136;28;88559;-48
2021/07/08 06:45:52;;;;;;;;;;;23.40;64.20;;;;;;5040041;28;87798;-49
2021/07/08 06:48:18;;;;;;;;;;;23.40;64.30;;;;;;5043236;28;87138;-48
2021/07/08 06:50:44;;;;;;;;;;;23.40;64.20;;;;;;5040884;28;89970;-48
2021/07/08 06:53:09;;;;;;;;;;;23.40;64.40;;;;;;5041993;28;87150;-50
2021/07/08 06:55:36;;;;;;;;;;;23.40;64.40;;;;;;5040938;28;88390;-50
2021/07/08 06:58:01;;;;;;;;;;;23.40;64.30;;;;;;5039994;28;87826;-49
2021/07/08 07:00:28;;;;;;;;;;;23.50;64.40;;;;;;5037759;28;87128;-49
2021/07/08 07:02:55;;;;;;;;;;;23.50;64.50;;;;;;5038454;28;88413;-48
2021/07/08 07:05:21;;;;;;;;;;;23.50;64.40;;;;;;5038154;28;90027;-48
2021/07/08 07:07:47;;;;;;;;;;;23.50;64.40;;;;;;5039288;28;88005;-48
2021/07/08 07:10:13;;;;;;;;;;;23.50;64.50;;;;;;5040322;28;87258;-49
2021/07/08 07:12:39;;;;;;;;;;;23.50;64.40;;;;;;5038285;28;87225;-48
2021/07/08 07:15:05;;;;;;;;;;;23.50;64.40;;;;;;5037426;28;88174;-48
2021/07/08 07:17:33;;;;;;;;;;;23.50;64.40;;;;;;5040964;28;88149;-51
2021/07/08 07:19:58;;;;;;;;;;;23.50;64.40;;;;;;5039199;28;87202;-48
2021/07/08 07:22:24;;;;;;;;;;;23.50;64.40;;;;;;5040654;28;87512;-48
2021/07/08 07:24:52;;;;;;;;;;;23.50;64.50;;;;;;5041021;28;88182;-51
2021/07/08 07:27:17;;;;;;;;;;;23.60;64.60;;;;;;5039106;28;87255;-48
2021/07/08 07:29:43;;;;;;;;;;;23.60;64.60;;;;;;5042176;28;88112;-48
2021/07/08 07:32:09;;;;;;;;;;;23.60;64.60;;;;;;5041482;28;87196;-50
2021/07/08 07:34:34;;;;;;;;;;;23.60;64.70;;;;;;5042051;28;87164;-50
2021/07/08 07:37:00;;;;;;;;;;;23.60;64.70;;;;;;5040068;28;87791;-49
2021/07/08 07:39:25;;;;;;;;;;;23.60;64.60;;;;;;5037006;28;89044;-48
2021/07/08 07:41:51;;;;;;;;;;;23.60;64.80;;;;;;5038143;28;87615;-48
2021/07/08 07:44:16;;;;;;;;;;;23.70;64.90;;;;;;5038860;28;88215;-49
2021/07/08 07:46:42;;;;;;;;;;;23.70;64.90;;;;;;5040953;28;86516;-49
2021/07/08 07:49:08;;;;;;;;;;;23.70;64.90;;;;;;5041398;28;88049;-48
2021/07/08 07:51:34;;;;;;;;;;;23.70;64.90;;;;;;5043944;28;88088;-50
2021/07/08 07:53:59;;;;;;;;;;;23.70;64.90;;;;;;5038244;28;88708;-49
2021/07/08 07:56:25;;;;;;;;;;;23.80;64.90;;;;;;5036795;28;88403;-48
2021/07/08 07:58:50;;;;;;;;;;;23.80;65.00;;;;;;5038294;28;87163;-49
2021/07/08 08:01:16;;;;;;;;;;;23.80;64.90;;;;;;5039412;28;88947;-49
2021/07/08 08:03:42;;;;;;;;;;;23.80;64.90;;;;;;5039448;28;87153;-49
2021/07/08 08:09:00;;;;;;;;;;;23.80;65.00;;;;;;5028590;28;87186;-48
2021/07/08 08:11:26;;;;;;;;;;;23.80;65.10;;;;;;5038743;28;86921;-49
2021/07/08 08:13:51;;;;;;;;;;;23.80;64.90;;;;;;5042593;28;87113;-50
2021/07/08 08:16:17;;;;;;;;;;;23.80;64.90;;;;;;5040327;28;87849;-48
2021/07/08 08:18:43;;;;;;;;;;;23.80;64.90;;;;;;5039794;28;89336;-49
2021/07/08 08:21:08;;;;;;;;;;;23.90;65.00;;;;;;5037025;28;88056;-48
2021/07/08 08:23:34;;;;;;;;;;;23.80;64.90;;;;;;5036212;28;87963;-49
2021/07/08 08:26:00;;;;;;;;;;;23.90;64.90;;;;;;5036422;28;87177;-50
2021/07/08 08:28:26;;;;;;;;;;;23.90;64.90;;;;;;5039385;28;88763;-48
2021/07/08 08:30:52;;;;;;;;;;;23.90;64.80;;;;;;5038496;28;89271;-49
2021/07/08 08:33:18;;;;;;;;;;;23.90;64.70;;;;;;5037313;28;88872;-49
2021/07/08 08:35:43;;;;;;;;;;;23.90;64.60;;;;;;5039854;28;87213;-50
2021/07/08 08:38:09;;;;;;;;;;;23.90;64.90;;;;;;5037601;28;87171;-48
2021/07/08 08:40:35;;;;;;;;;;;24.00;64.80;;;;;;5038366;28;89667;-49
2021/07/08 08:43:00;;;;;;;;;;;24.00;64.40;;;;;;5038435;28;89987;-49
2021/07/08 08:45:26;;;;;;;;;;;24.00;64.60;;;;;;5040735;28;87171;-52
2021/07/08 08:48:04;;;;;;;;;;;24.00;64.50;;;;;;5038441;28;88994;-49
2021/07/08 08:50:32;;;;;;;;;;;24.00;64.70;;;;;;5038918;28;88777;-48
2021/07/08 08:52:58;;;;;;;;;;;24.00;64.60;;;;;;5037843;28;87244;-50
2021/07/08 08:55:23;;;;;;;;;;;24.10;64.50;;;;;;5038165;28;87202;-49
2021/07/08 08:57:49;;;;;;;;;;;24.10;64.50;;;;;;5042444;28;89429;-49
2021/07/08 09:00:23;;;;;;;;;;;24.10;64.40;;;;;;5040357;28;88838;-49
2021/07/08 09:02:59;;;;;;;;;;;24.10;64.00;;;;;;5036512;28;89597;-49
2021/07/08 09:05:24;;;;;;;;;;;24.10;64.50;;;;;;5038363;28;87162;-49
2021/07/08 09:07:50;;;;;;;;;;;24.10;64.30;;;;;;5038887;28;88079;-51
2021/07/08 09:10:16;;;;;;;;;;;24.20;64.20;;;;;;5039898;28;89777;-49
2021/07/08 09:12:42;;;;;;;;;;;24.20;64.30;;;;;;5039247;28;88886;-48
2021/07/08 09:15:13;;;;;;;;;;;24.20;64.10;;;;;;5035880;28;88722;-49
2021/07/08 09:17:39;;;;;;;;;;;24.20;64.20;;;;;;5036476;28;88611;-48
2021/07/08 09:20:07;;;;;;;;;;;24.20;63.90;;;;;;5038435;28;87112;-50
2021/07/08 09:22:32;;;;;;;;;;;24.20;63.80;;;;;;5037512;28;88935;-48
2021/07/08 09:24:58;;;;;;;;;;;24.30;63.90;;;;;;5036209;28;86414;-51
2021/07/08 09:27:25;;;;;;;;;;;24.30;64.20;;;;;;5036434;28;87269;-48
2021/07/08 09:29:51;;;;;;;;;;;24.30;63.90;;;;;;5035118;28;89382;-49
2021/07/08 09:32:20;;;;;;;;;;;24.30;63.70;;;;;;5035281;28;88143;-49
2021/07/08 09:34:47;;;;;;;;;;;24.30;63.50;;;;;;5037963;28;89772;-49
2021/07/08 09:37:12;;;;;;;;;;;24.30;63.30;;;;;;5037746;28;89303;-48
2021/07/08 09:39:46;;;;;;;;;;;24.30;63.50;;;;;;5042465;28;87280;-49
2021/07/08 09:42:13;;;;;;;;;;;24.40;63.70;;;;;;5036342;28;87689;-48
2021/07/08 09:44:39;;;;;;;;;;;24.40;64.10;;;;;;5035688;28;87163;-48
2021/07/08 09:47:17;;;;;;;;;;;24.40;63.70;;;;;;5036139;28;88833;-50
2021/07/08 09:49:44;;;;;;;;;;;24.40;63.30;;;;;;5038732;28;86766;-48
2021/07/08 09:52:11;;;;;;;;;;;24.50;63.80;;;;;;5039343;28;87182;-49
2021/07/08 09:57:33;;;;;;;;;;;24.50;63.50;;;;;;5036371;28;89338;-50
2021/07/08 09:59:59;;;;;;;;;;;24.50;63.40;;;;;;5038254;28;87205;-48
2021/07/08 10:02:32;;;;;;;;;;;24.50;63.10;;;;;;5041054;28;88797;-51
2021/07/08 10:04:58;;;;;;;;;;;24.50;63.40;;;;;;5036621;28;87255;-49
2021/07/08 10:07:24;;;;;;;;;;;24.50;63.40;;;;;;5038198;28;87827;-48
2021/07/08 10:09:50;;;;;;;;;;;24.60;63.60;;;;;;5041006;28;88173;-49
2021/07/08 10:12:15;;;;;;;;;;;24.60;63.50;;;;;;5042211;28;87177;-49
2021/07/08 10:14:43;;;;;;;;;;;24.60;63.50;;;;;;5043629;28;88695;-49
2021/07/08 10:17:11;;;;;;;;;;;24.60;63.50;;;;;;5041489;28;88465;-49
2021/07/08 10:19:37;;;;;;;;;;;24.60;63.70;;;;;;5040063;28;87146;-49
2021/07/08 10:22:02;;;;;;;;;;;24.60;63.30;;;;;;5040091;28;88119;-49
2021/07/08 10:24:29;;;;;;;;;;;24.70;63.60;;;;;;5044035;28;88009;-49
2021/07/08 10:26:55;;;;;;;;;;;24.60;63.50;;;;;;5041164;28;87775;-49
2021/07/08 10:29:21;;;;;;;;;;;24.70;63.50;;;;;;5039339;28;88162;-50
2021/07/08 10:31:48;;;;;;;;;;;24.80;63.60;;;;;;5039717;28;87223;-49
2021/07/08 10:34:15;;;;;;;;;;;24.80;63.30;;;;;;5038914;28;87146;-49
2021/07/08 10:36:42;;;;;;;;;;;24.80;63.40;;;;;;5038725;28;88779;-50
2021/07/08 10:39:13;;;;;;;;;;;24.80;63.50;;;;;;5042561;28;86479;-50
2021/07/08 10:41:39;;;;;;;;;;;24.80;63.40;;;;;;5041486;28;87814;-49
2021/07/08 10:44:25;;;;;;;;;;;24.80;63.50;;;;;;5041020;28;88027;-49
2021/07/08 10:46:50;;;;;;;;;;;24.90;63.50;;;;;;5040494;27;88071;-49
2021/07/08 10:49:16;;;;;;;;;;;24.90;63.40;;;;;;5038971;28;89237;-49
2021/07/08 10:51:44;;;;;;;;;;;24.90;63.50;;;;;;5040488;28;87105;-49
2021/07/08 10:54:29;;;;;;;;;;;24.90;63.30;;;;;;5037772;28;87136;-49
2021/07/08 10:56:55;;;;;;;;;;;24.90;63.10;;;;;;5040399;28;89384;-48
2021/07/08 10:59:21;;;;;;;;;;;24.90;63.20;;;;;;5040702;28;87149;-48
2021/07/08 11:01:48;;;;;;;;;;;25.00;63.40;;;;;;5040673;28;87789;-49
2021/07/08 11:04:14;;;;;;;;;;;24.90;63.00;;;;;;5039394;28;88370;-49
2021/07/08 11:06:44;;;;;;;;;;;25.00;62.90;;;;;;5039375;28;87136;-49
2021/07/08 11:09:13;;;;;;;;;;;25.10;63.10;;;;;;5044322;28;89198;-50
2021/07/08 11:11:45;;;;;;;;;;;25.00;62.80;;;;;;5037427;28;88068;-49
2021/07/08 11:14:12;;;;;;;;;;;25.10;62.50;;;;;;5038386;28;88282;-50
2021/07/08 11:16:44;;;;;;;;;;;25.10;63.40;;;;;;5037338;28;88267;-48
2021/07/08 11:19:15;;;;;;;;;;;25.10;62.80;;;;;;5039916;27;88068;-48
2021/07/08 11:21:59;;;;;;;;;;;25.10;62.60;;;;;;5037967;28;88688;-49
2021/07/08 11:24:26;;;;;;;;;;;25.10;62.90;;;;;;5040505;28;89277;-48
2021/07/08 11:26:55;;;;;;;;;;;25.10;62.80;;;;;;5040286;28;87115;-48
2021/07/08 11:29:40;;;;;;;;;;;25.10;62.90;;;;;;5043175;28;88059;-50
2021/07/08 11:32:25;;;;;;;;;;;25.10;62.90;;;;;;5037849;28;87186;-48
2021/07/08 11:34:53;;;;;;;;;;;25.20;62.60;;;;;;5040020;28;89332;-49
2021/07/08 11:37:21;;;;;;;;;;;25.20;62.60;;;;;;5037720;28;90572;-48
2021/07/08 11:39:52;;;;;;;;;;;25.20;62.70;;;;;;5039874;28;87714;-48
2021/07/08 11:42:18;;;;;;;;;;;25.20;62.70;;;;;;5037874;28;88068;-49
2021/07/08 11:44:44;;;;;;;;;;;25.30;62.70;;;;;;5037605;28;88206;-48
2021/07/08 11:47:10;;;;;;;;;;;25.30;62.60;;;;;;5036970;28;87166;-49
2021/07/08 11:49:35;;;;;;;;;;;25.30;62.40;;;;;;5037214;28;88932;-49
2021/07/08 11:52:15;;;;;;;;;;;25.30;62.70;;;;;;5039228;28;88642;-50
2021/07/08 11:54:52;;;;;;;;;;;25.30;62.70;;;;;;5037890;28;89215;-50
2021/07/08 11:57:18;;;;;;;;;;;25.40;62.50;;;;;;5037025;28;89520;-50
2021/07/08 11:59:47;;;;;;;;;;;25.40;62.40;;;;;;5037655;28;87171;-48
2021/07/08 12:02:29;;;;;;;;;;;25.40;62.50;;;;;;5040239;28;88165;-51
2021/07/08 12:05:13;;;;;;;;;;;25.40;62.50;;;;;;5039451;28;87662;-50
2021/07/08 12:07:40;;;;;;;;;;;25.40;62.30;;;;;;5040613;27;87209;-49
2021/07/08 12:10:06;;;;;;;;;;;25.50;62.50;;;;;;5038964;28;87115;-49
2021/07/08 12:12:32;;;;;;;;;;;25.50;62.30;;;;;;5038559;28;89680;-49
2021/07/08 12:14:58;;;;;;;;;;;25.50;62.20;;;;;;5043031;28;87143;-50
2021/07/08 12:17:26;;;;;;;;;;;25.50;61.80;;;;;;5040137;28;87253;-52
2021/07/08 12:20:02;;;;;;;;;;;25.50;62.30;;;;;;5038441;28;86410;-49
2021/07/08 12:22:28;;;;;;;;;;;25.50;61.80;;;;;;5038546;28;87137;-49
2021/07/08 12:24:53;;;;;;;;;;;25.50;62.10;;;;;;5039331;28;87141;-49
2021/07/08 12:27:19;;;;;;;;;;;25.60;61.60;;;;;;5039323;28;88063;-49
2021/07/08 12:29:45;;;;;;;;;;;25.60;61.70;;;;;;5039619;27;87941;-52
2021/07/08 12:32:21;;;;;;;;;;;25.60;61.70;;;;;;5038722;28;88772;-49
2021/07/08 12:34:49;;;;;;;;;;;25.60;61.80;;;;;;5038922;28;87485;-48
2021/07/08 12:37:23;;;;;;;;;;;25.60;61.80;;;;;;5041934;28;88920;-49
2021/07/08 12:39:59;;;;;;;;;;;25.60;62.00;;;;;;5037066;28;87144;-49
2021/07/08 12:42:30;;;;;;;;;;;25.70;61.60;;;;;;5036934;28;88699;-49
2021/07/08 12:45:00;;;;;;;;;;;25.70;61.90;;;;;;5036517;28;88970;-49
2021/07/08 12:47:25;;;;;;;;;;;25.70;61.70;;;;;;5037355;28;87157;-49
2021/07/08 12:49:52;;;;;;;;;;;25.70;61.10;;;;;;5038568;28;87539;-49
2021/07/08 12:52:19;;;;;;;;;;;25.80;61.10;;;;;;5037427;28;88962;-49
2021/07/08 12:54:44;;;;;;;;;;;25.80;60.90;;;;;;5038142;28;87181;-49
2021/07/08 12:57:11;;;;;;;;;;;25.80;60.00;;;;;;5038756;28;89182;-50
2021/07/08 12:59:38;;;;;;;;;;;25.80;60.70;;;;;;5038723;28;88909;-49
2021/07/08 13:02:05;;;;;;;;;;;25.90;60.30;;;;;;5040364;28;88998;-49
2021/07/08 13:04:35;;;;;;;;;;;25.90;60.60;;;;;;5037846;28;89199;-48
2021/07/08 13:07:01;;;;;;;;;;;25.90;60.20;;;;;;5038120;28;87143;-49
2021/07/08 13:09:28;;;;;;;;;;;25.90;60.20;;;;;;5038617;28;86398;-48
2021/07/08 13:11:54;;;;;;;;;;;25.90;59.70;;;;;;5037044;28;89149;-50
2021/07/08 13:14:21;;;;;;;;;;;26.00;59.80;;;;;;5036394;28;87230;-49
2021/07/08 13:17:00;;;;;;;;;;;26.00;59.40;;;;;;5039164;28;89092;-49
2021/07/08 13:19:26;;;;;;;;;;;26.10;59.30;;;;;;5035839;28;89594;-50
2021/07/08 13:21:51;;;;;;;;;;;26.10;59.50;;;;;;5039505;28;87172;-49
2021/07/08 13:24:21;;;;;;;;;;;26.10;59.70;;;;;;5037405;28;87761;-49
2021/07/08 13:26:47;;;;;;;;;;;26.10;58.90;;;;;;5039447;28;87130;-49
2021/07/08 13:29:13;;;;;;;;;;;26.10;59.40;;;;;;5039584;28;87678;-50
2021/07/08 13:31:39;;;;;;;;;;;26.10;58.90;;;;;;5037594;28;89063;-49
2021/07/08 13:34:04;;;;;;;;;;;26.20;59.10;;;;;;5036055;28;87335;-48
2021/07/08 13:36:33;;;;;;;;;;;26.20;58.70;;;;;;5036530;28;87138;-50
2021/07/08 13:39:00;;;;;;;;;;;26.20;59.00;;;;;;5039163;28;88484;-49
2021/07/08 13:41:30;;;;;;;;;;;26.30;58.50;;;;;;5043491;28;88099;-49
2021/07/08 13:43:55;;;;;;;;;;;26.30;58.20;;;;;;5039942;28;90052;-49
2021/07/08 13:46:41;;;;;;;;;;;26.40;57.90;;;;;;5039474;28;87171;-49
2021/07/08 13:49:15;;;;;;;;;;;26.40;58.10;;;;;;5040324;27;88657;-49
2021/07/08 13:51:49;;;;;;;;;;;26.50;58.10;;;;;;5042919;28;88138;-49
2021/07/08 13:54:16;;;;;;;;;;;26.40;58.80;;;;;;5040570;27;87183;-50
2021/07/08 13:56:42;;;;;;;;;;;26.50;58.00;;;;;;5040742;28;87500;-49
2021/07/08 13:59:07;;;;;;;;;;;26.60;58.10;;;;;;5041344;28;87400;-51
2021/07/08 14:01:33;;;;;;;;;;;26.60;57.70;;;;;;5042305;28;87201;-49
2021/07/08 14:04:00;;;;;;;;;;;26.60;57.10;;;;;;5045281;28;88388;-50
2021/07/08 14:06:26;;;;;;;;;;;26.60;57.50;;;;;;5042215;28;88141;-49
2021/07/08 14:08:52;;;;;;;;;;;26.60;58.00;;;;;;5043118;28;89851;-51
2021/07/08 14:11:18;;;;;;;;;;;26.70;57.80;;;;;;5042484;28;89457;-49
2021/07/08 14:13:44;;;;;;;;;;;26.70;57.60;;;;;;5041751;28;87671;-48
2021/07/08 14:16:10;;;;;;;;;;;26.70;58.00;;;;;;5040586;28;88205;-49
2021/07/08 14:18:36;;;;;;;;;;;26.80;58.20;;;;;;5038955;28;89678;-49
2021/07/08 14:21:02;;;;;;;;;;;26.80;58.40;;;;;;5038909;28;87206;-48